createdAt,value
2019-04-13T00:00:59.665Z,97077.11
2019-04-13T00:03:25.615Z,97078.64
2019-04-13T00:06:11.324Z,97081.77
2019-04-13T00:16:19.274Z,97079.88
2019-04-13T00:18:45.117Z,97077.59
2019-04-13T00:21:10.942Z,97071.03
2019-04-13T00:23:36.784Z,97072.94
2019-04-13T00:26:02.730Z,97073.98
2019-04-13T00:28:28.553Z,97068.98
2019-04-13T00:30:54.414Z,97068.98
2019-04-13T00:33:20.249Z,97065.84
2019-04-13T00:35:46.092Z,97066.37
2019-04-13T00:38:11.923Z,97064.55
2019-04-13T00:40:37.755Z,97055.41
2019-04-13T00:43:03.587Z,97054.89
2019-04-13T00:45:29.436Z,97055.09
2019-04-13T00:47:55.284Z,97046.76
2019-04-13T00:50:21.214Z,97039.72
2019-04-13T00:52:47.255Z,97043.89
2019-04-13T00:55:13.099Z,97043.09
2019-04-13T00:57:38.929Z,97037.61
2019-04-13T01:00:46.425Z,97027.96
2019-04-13T01:03:12.255Z,97026.92
2019-04-13T01:05:38.116Z,97024.27
2019-04-13T01:08:03.943Z,97023.23
2019-04-13T01:10:29.773Z,97015.70
2019-04-13T01:12:55.649Z,97011.22
2019-04-13T01:15:21.487Z,97015.91
2019-04-13T01:17:47.351Z,97020.35
2019-04-13T01:20:13.273Z,97020.35
2019-04-13T01:22:39.131Z,97019.55
2019-04-13T01:25:04.963Z,97014.87
2019-04-13T01:27:30.813Z,97013.30
2019-04-13T01:29:56.642Z,97013.30
2019-04-13T01:32:22.485Z,97007.27
2019-04-13T01:34:48.327Z,97003.13
2019-04-13T01:37:14.163Z,97007.56
2019-04-13T01:39:40.021Z,97006.05
2019-04-13T01:42:05.855Z,96995.09
2019-04-13T01:44:31.699Z,96994.30
2019-04-13T01:46:57.547Z,96998.22
2019-04-13T01:49:23.499Z,97000.61
2019-04-13T01:51:49.346Z,96999.52
2019-04-13T01:54:15.214Z,96997.70
2019-04-13T01:56:41.064Z,96982.30
2019-04-13T01:59:06.927Z,96985.96
2019-04-13T02:01:52.642Z,96986.25
2019-04-13T02:04:38.362Z,96990.66
2019-04-13T02:07:24.440Z,96996.88
2019-04-13T02:10:10.158Z,96999.69
2019-04-13T02:12:36.001Z,97000.98
2019-04-13T02:15:43.507Z,96996.77
2019-04-13T02:18:09.344Z,97000.69
2019-04-13T02:20:35.213Z,96999.69
2019-04-13T02:23:01.046Z,96995.53
2019-04-13T02:25:26.903Z,96996.31
2019-04-13T02:27:52.752Z,97003.13
2019-04-13T02:30:18.833Z,97004.65
2019-04-13T02:32:44.672Z,97005.48
2019-04-13T02:35:10.512Z,97012.22
2019-04-13T02:37:36.363Z,97007.56
2019-04-13T02:40:02.309Z,97008.09
2019-04-13T02:42:28.159Z,97007.82
2019-04-13T02:44:54.377Z,97001.52
2019-04-13T02:47:20.200Z,97004.66
2019-04-13T02:49:46.045Z,97006.42
2019-04-13T02:52:11.882Z,97005.95
2019-04-13T02:54:37.700Z,97003.09
2019-04-13T02:57:03.578Z,97007.24
2019-04-13T02:59:29.514Z,97005.69
2019-04-13T03:02:37.005Z,97003.14
2019-04-13T03:05:47.035Z,97002.66
2019-04-13T03:08:12.240Z,97004.48
2019-04-13T03:10:38.061Z,97001.83
2019-04-13T03:13:03.934Z,97003.34
2019-04-13T03:15:49.733Z,97005.82
2019-04-13T03:20:52.684Z,96996.25
2019-04-13T03:23:18.535Z,96993.42
2019-04-13T03:25:44.360Z,96996.52
2019-04-13T03:28:10.220Z,96997.55
2019-04-13T03:33:23.655Z,96990.70
2019-04-13T03:35:58.771Z,96998.06
2019-04-13T03:38:17.237Z,96998.84
2019-04-13T03:40:43.085Z,97000.88
2019-04-13T03:43:08.940Z,97004.73
2019-04-13T03:45:34.806Z,96994.71
2019-04-13T03:48:00.648Z,96995.27
2019-04-13T03:50:26.491Z,96992.39
2019-04-13T03:52:52.693Z,96985.80
2019-04-13T03:55:18.560Z,96989.41
2019-04-13T03:57:44.393Z,96982.81
2019-04-13T04:03:04.439Z,96989.06
2019-04-13T04:05:30.273Z,96994.53
2019-04-13T04:07:56.135Z,96992.73
2019-04-13T04:10:21.992Z,96992.20
2019-04-13T04:12:47.906Z,96986.89
2019-04-13T04:15:13.875Z,96986.64
2019-04-13T04:17:39.696Z,96979.08
2019-04-13T04:20:05.649Z,96986.13
2019-04-13T04:22:31.489Z,96980.83
2019-04-13T04:24:57.340Z,96982.44
2019-04-13T04:27:23.229Z,96987.08
2019-04-13T04:29:49.090Z,96981.17
2019-04-13T04:32:14.952Z,96988.27
2019-04-13T04:34:40.798Z,96988.59
2019-04-13T04:37:06.622Z,96983.95
2019-04-13T04:39:32.493Z,96992.11
2019-04-13T04:41:58.306Z,96994.39
2019-04-13T04:44:24.169Z,96994.63
2019-04-13T04:46:50.003Z,96882.72
2019-04-13T04:49:15.866Z,96989.53
2019-04-13T04:51:41.695Z,96993.53
2019-04-13T04:54:07.545Z,96987.75
2019-04-13T04:56:33.399Z,96986.30
2019-04-13T04:58:59.249Z,96981.66
2019-04-13T05:01:25.085Z,96984.78
2019-04-13T05:03:50.934Z,96981.17
2019-04-13T05:06:16.806Z,96977.97
2019-04-13T05:08:42.635Z,96978.83
2019-04-13T05:11:08.505Z,96987.06
2019-04-13T05:13:34.352Z,96985.23
2019-04-13T05:16:00.208Z,96981.30
2019-04-13T05:18:26.055Z,96986.51
2019-04-13T05:20:52.010Z,96976.24
2019-04-13T05:23:17.844Z,96984.30
2019-04-13T05:25:43.689Z,96984.67
2019-04-13T05:28:09.515Z,96992.41
2019-04-13T05:30:35.366Z,96990.08
2019-04-13T05:33:01.200Z,96992.53
2019-04-13T05:35:27.044Z,96992.37
2019-04-13T05:37:52.899Z,96989.27
2019-04-13T05:40:38.635Z,96986.97
2019-04-13T05:43:04.475Z,96986.97
2019-04-13T05:45:30.306Z,97000.91
2019-04-13T05:47:56.147Z,97004.95
2019-04-13T05:50:21.989Z,97009.38
2019-04-13T05:52:47.835Z,97014.77
2019-04-13T05:55:13.679Z,97016.95
2019-04-13T05:57:39.530Z,97017.00
2019-04-13T06:00:47.030Z,97014.09
2019-04-13T06:03:12.888Z,97016.23
2019-04-13T06:05:38.733Z,97016.70
2019-04-13T06:08:04.622Z,97014.88
2019-04-13T06:10:30.471Z,97011.80
2019-04-13T06:12:56.360Z,97017.87
2019-04-13T06:15:22.220Z,97017.57
2019-04-13T06:17:48.044Z,97018.61
2019-04-13T06:20:15.358Z,97010.04
2019-04-13T06:22:41.658Z,97007.73
2019-04-13T06:25:49.149Z,97012.15
2019-04-13T06:36:19.585Z,97018.70
2019-04-13T06:38:45.488Z,97005.67
2019-04-13T06:41:11.929Z,97009.03
2019-04-13T06:43:39.341Z,97010.52
2019-04-13T06:46:05.191Z,97012.34
2019-04-13T06:48:31.047Z,97007.09
2019-04-13T06:50:56.891Z,97008.86
2019-04-13T06:53:22.813Z,97007.98
2019-04-13T06:55:48.664Z,97013.14
2019-04-13T06:58:15.758Z,97015.55
2019-04-13T07:00:42.346Z,97011.90
2019-04-13T07:03:08.170Z,97008.73
2019-04-13T07:05:34.133Z,97013.24
2019-04-13T07:11:07.327Z,97017.88
2019-04-13T07:16:43.961Z,97013.80
2019-04-13T07:19:09.134Z,97009.47
2019-04-13T07:21:37.785Z,97005.19
2019-04-13T07:24:02.832Z,97003.41
2019-04-13T07:26:28.650Z,96999.63
2019-04-13T07:28:54.938Z,97011.09
2019-04-13T07:31:20.771Z,97012.27
2019-04-13T07:34:06.603Z,97014.97
2019-04-13T07:36:32.449Z,97019.52
2019-04-13T07:38:58.287Z,97007.66
2019-04-13T07:41:24.128Z,97015.28
2019-04-13T07:43:50.009Z,97007.80
2019-04-13T07:46:55.681Z,97017.81
2019-04-13T07:49:41.429Z,97008.50
2019-04-13T07:52:29.127Z,97009.98
2019-04-13T07:54:54.982Z,97010.44
2019-04-13T07:57:20.862Z,97012.77
2019-04-13T07:59:48.026Z,97015.28
2019-04-13T08:05:43.500Z,97016.70
2019-04-13T08:08:09.386Z,97011.13
2019-04-13T08:10:35.223Z,97016.14
2019-04-13T08:13:01.074Z,97014.30
2019-04-13T08:15:38.749Z,97008.28
2019-04-13T08:17:54.739Z,97014.02
2019-04-13T08:20:40.434Z,97014.56
2019-04-13T08:25:43.390Z,97010.08
2019-04-13T08:28:09.435Z,97014.22
2019-04-13T08:30:36.002Z,97017.28
2019-04-13T08:33:03.104Z,97021.19
2019-04-13T08:35:28.945Z,97018.91
2019-04-13T08:38:11.713Z,97012.30
2019-04-13T08:42:08.378Z,97012.28
2019-04-13T08:43:10.394Z,97008.55
2019-04-13T08:45:36.297Z,97002.41
2019-04-13T08:48:02.249Z,97006.12
2019-04-13T08:50:28.075Z,97007.09
2019-04-13T08:52:53.895Z,97007.47
2019-04-13T08:55:19.763Z,97007.95
2019-04-13T08:57:45.610Z,97005.07
2019-04-13T09:00:53.113Z,96998.46
2019-04-13T09:03:38.844Z,97005.23
2019-04-13T09:06:04.716Z,97005.23
2019-04-13T09:08:33.232Z,96997.27
2019-04-13T09:10:58.351Z,97000.17
2019-04-13T09:13:25.220Z,96999.79
2019-04-13T09:15:52.082Z,96996.66
2019-04-13T09:18:37.957Z,97000.31
2019-04-13T09:21:25.546Z,96998.70
2019-04-13T09:23:51.409Z,96991.96
2019-04-13T09:26:17.254Z,96994.61
2019-04-13T09:28:44.005Z,96980.66
2019-04-13T09:31:30.798Z,96974.46
2019-04-13T09:34:29.717Z,96978.88
2019-04-13T09:37:04.182Z,96978.19
2019-04-13T09:39:30.058Z,96978.19
2019-04-13T09:41:55.969Z,96983.98
2019-04-13T09:44:41.807Z,96979.27
2019-04-13T09:47:28.148Z,96972.42
2019-04-13T09:50:13.914Z,96972.69
2019-04-13T09:52:39.752Z,96972.69
2019-04-13T09:55:05.630Z,96973.35
2019-04-13T09:57:31.480Z,96970.91
2019-04-13T09:59:57.900Z,96971.12
2019-04-13T10:02:26.133Z,96965.92
2019-04-13T10:04:52.868Z,96962.23
2019-04-13T10:07:18.730Z,96961.17
2019-04-13T10:09:44.622Z,96961.91
2019-04-13T10:12:30.322Z,96954.99
2019-04-13T10:17:54.501Z,96951.74
2019-04-13T10:20:20.744Z,96948.50
2019-04-13T10:22:46.616Z,96956.33
2019-04-13T10:25:12.578Z,96946.67
2019-04-13T10:27:38.432Z,96945.44
2019-04-13T10:30:45.969Z,96943.53
2019-04-13T10:33:11.795Z,96939.63
2019-04-13T10:35:37.746Z,96937.25
2019-04-13T10:38:03.695Z,96935.80
2019-04-13T10:40:29.534Z,96930.89
2019-04-13T10:42:55.402Z,96924.56
2019-04-13T10:45:41.112Z,96926.53
2019-04-13T10:51:00.633Z,96931.20
2019-04-13T10:53:26.551Z,96924.73
2019-04-13T10:55:52.390Z,96921.73
2019-04-13T10:58:18.240Z,96922.19
2019-04-13T11:00:44.086Z,96924.80
2019-04-13T11:03:09.941Z,96925.02
2019-04-13T11:05:35.794Z,96926.23
2019-04-13T11:08:01.769Z,96927.05
2019-04-13T11:10:47.604Z,96917.01
2019-04-13T11:13:13.459Z,96926.96
2019-04-13T11:15:41.840Z,96916.30
2019-04-13T11:18:07.341Z,96920.44
2019-04-13T11:20:33.188Z,96920.39
2019-04-13T11:22:59.779Z,96909.67
2019-04-13T11:25:26.912Z,96914.73
2019-04-13T11:27:52.770Z,96926.98
2019-04-13T11:30:38.507Z,96914.71
2019-04-13T11:33:24.478Z,96914.59
2019-04-13T11:35:50.324Z,96914.59
2019-04-13T11:38:18.491Z,96915.92
2019-04-13T11:44:17.648Z,96914.45
2019-04-13T11:47:03.390Z,96914.45
2019-04-13T11:52:16.647Z,96911.09
2019-04-13T11:54:42.510Z,96910.66
2019-04-13T11:57:11.274Z,96905.23
2019-04-13T11:59:36.134Z,96899.56
2019-04-13T12:05:18.734Z,96900.66
2019-04-13T12:10:37.969Z,96891.80
2019-04-13T12:13:23.711Z,96890.34
2019-04-13T12:16:29.458Z,96898.92
2019-04-13T12:22:08.619Z,96904.34
2019-04-13T12:24:54.385Z,96897.77
2019-04-13T12:27:20.252Z,96897.77
2019-04-13T12:29:46.192Z,96897.17
2019-04-13T12:34:59.419Z,96887.84
2019-04-13T12:37:25.271Z,96885.70
2019-04-13T12:42:48.062Z,96887.88
2019-04-13T12:47:46.481Z,96874.08
2019-04-13T12:50:53.976Z,96883.58
2019-04-13T12:53:39.883Z,96886.83
2019-04-13T12:56:05.712Z,96883.84
2019-04-13T12:58:31.574Z,96884.28
2019-04-13T13:04:05.459Z,96882.88
2019-04-13T13:06:32.877Z,96882.70
2019-04-13T13:09:01.370Z,96877.47
2019-04-13T13:11:26.745Z,96883.41
2019-04-13T13:13:53.574Z,96888.55
2019-04-13T13:16:20.729Z,96881.02
2019-04-13T13:18:46.596Z,96862.75
2019-04-13T13:21:12.460Z,96870.63
2019-04-13T13:23:38.426Z,96865.01
2019-04-13T13:29:31.405Z,96865.05
2019-04-13T13:32:17.581Z,96864.94
2019-04-13T13:35:05.183Z,96874.02
2019-04-13T13:37:31.613Z,96874.02
2019-04-13T13:39:58.801Z,96869.22
2019-04-13T13:45:16.966Z,96864.66
2019-04-13T13:47:42.843Z,96864.66
2019-04-13T13:50:52.916Z,96860.06
2019-04-13T13:53:39.337Z,96855.42
2019-04-13T13:56:05.792Z,96855.42
2019-04-13T13:58:51.541Z,96859.17
2019-04-13T14:01:37.312Z,96855.05
2019-04-13T14:04:23.024Z,96863.64
2019-04-13T14:07:08.880Z,96855.17
2019-04-13T14:09:34.707Z,96855.17
2019-04-13T14:12:00.601Z,96865.43
2019-04-13T14:14:26.440Z,96860.40
2019-04-13T14:16:52.271Z,96871.43
2019-04-13T14:19:18.144Z,96865.08
2019-04-13T14:21:43.984Z,96859.99
2019-04-13T14:24:09.935Z,96861.08
2019-04-13T14:26:35.784Z,96863.17
2019-04-13T14:29:01.614Z,96855.03
2019-04-13T14:31:27.470Z,96862.64
2019-04-13T14:33:53.291Z,96851.99
2019-04-13T14:36:19.190Z,96854.42
2019-04-13T14:38:45.020Z,96848.18
2019-04-13T14:41:11.008Z,96857.17
2019-04-13T14:46:10.504Z,96844.68
2019-04-13T14:49:18.020Z,96849.81
2019-04-13T14:51:43.861Z,96851.57
2019-04-13T14:54:09.714Z,96855.83
2019-04-13T14:56:36.295Z,96856.20
2019-04-13T14:59:23.228Z,96851.33
2019-04-13T15:01:49.094Z,96851.33
2019-04-13T15:04:14.953Z,96857.38
2019-04-13T15:06:40.838Z,96849.54
2019-04-13T15:09:06.680Z,96850.61
2019-04-13T15:11:32.537Z,96843.29
2019-04-13T15:13:58.381Z,96845.98
2019-04-13T15:16:38.091Z,96841.61
2019-04-13T15:19:31.342Z,96839.52
2019-04-13T15:21:50.318Z,96839.52
2019-04-13T15:24:20.175Z,96846.60
2019-04-13T15:27:07.669Z,96844.45
2019-04-13T15:29:34.681Z,96844.45
2019-04-13T15:32:25.116Z,96833.34
2019-04-13T15:34:48.931Z,96851.45
2019-04-13T15:37:17.104Z,96851.45
2019-04-13T15:39:45.537Z,96855.97
2019-04-13T15:42:18.635Z,96854.59
2019-04-13T15:44:40.898Z,96856.20
2019-04-13T15:47:12.606Z,96859.31
2019-04-13T15:49:55.303Z,96848.77
2019-04-13T15:52:22.189Z,96848.77
2019-04-13T15:55:08.813Z,96858.50
2019-04-13T15:57:55.540Z,96852.02
2019-04-13T16:03:10.574Z,96854.66
2019-04-13T16:05:37.557Z,96863.33
2019-04-13T16:08:05.261Z,96856.77
2019-04-13T16:11:12.070Z,96854.41
2019-04-13T16:13:39.096Z,96854.41
2019-04-13T16:16:19.949Z,96849.39
2019-04-13T16:19:00.438Z,96857.99
2019-04-13T16:21:26.369Z,96857.99
2019-04-13T16:23:52.299Z,96859.03
2019-04-13T16:26:18.114Z,96858.95
2019-04-13T16:29:03.874Z,96858.72
2019-04-13T16:34:57.300Z,96856.58
2019-04-13T16:37:44.199Z,96856.88
2019-04-13T16:40:11.709Z,96854.49
2019-04-13T16:42:38.368Z,96851.54
2019-04-13T16:45:47.025Z,96858.36
2019-04-13T16:51:23.018Z,96861.03
2019-04-13T16:54:27.802Z,96851.00
2019-04-13T16:57:33.735Z,96852.78
2019-04-13T17:00:40.797Z,96852.78
2019-04-13T17:03:27.194Z,96867.08
2019-04-13T17:08:41.226Z,96860.03
2019-04-13T17:11:09.119Z,96860.03
2019-04-13T17:13:36.820Z,96863.92
2019-04-13T17:16:04.984Z,96861.59
2019-04-13T17:24:12.624Z,96855.13
2019-04-13T17:37:39.904Z,96860.87
2019-04-13T17:48:48.384Z,96867.55
2019-04-13T17:51:35.228Z,96869.62
2019-04-13T17:54:21.127Z,96867.21
2019-04-13T17:56:47.472Z,96862.27
2019-04-13T18:02:42.582Z,96873.05
2019-04-13T18:05:50.219Z,96873.02
2019-04-13T18:08:43.157Z,96872.85
2019-04-13T18:14:31.709Z,96877.40
2019-04-13T18:17:30.912Z,96886.41
2019-04-13T18:19:56.927Z,96886.41
2019-04-13T18:22:23.075Z,96892.14
2019-04-13T18:24:51.296Z,96892.22
2019-04-13T18:27:19.428Z,96884.92
2019-04-13T18:29:58.197Z,96900.97
2019-04-13T18:32:33.743Z,96902.45
2019-04-13T18:35:00.426Z,96902.45
2019-04-13T18:37:28.520Z,96910.59
2019-04-13T18:39:56.716Z,96916.13
2019-04-13T18:42:24.059Z,96913.68
2019-04-13T18:44:50.901Z,96912.98
2019-04-13T18:47:17.813Z,96915.44
2019-04-13T18:49:45.267Z,96924.35
2019-04-13T18:52:32.303Z,96917.95
2019-04-13T18:54:59.398Z,96917.95
2019-04-13T18:57:25.957Z,96915.59
2019-04-13T18:59:52.273Z,96916.72
2019-04-13T19:02:19.557Z,96925.95
2019-04-13T19:04:45.416Z,96924.29
2019-04-13T19:07:11.269Z,96928.38
2019-04-13T19:09:37.109Z,96927.56
2019-04-13T19:12:03.007Z,96926.31
2019-04-13T19:14:28.868Z,96931.05
2019-04-13T19:16:54.760Z,96928.93
2019-04-13T19:19:20.605Z,96931.80
2019-04-13T19:21:46.423Z,96930.50
2019-04-13T19:24:12.308Z,96934.73
2019-04-13T19:26:38.252Z,96929.26
2019-04-13T19:29:04.102Z,96931.63
2019-04-13T19:31:29.929Z,96934.28
2019-04-13T19:33:55.790Z,96933.22
2019-04-13T19:36:21.633Z,96932.97
2019-04-13T19:38:47.499Z,96938.28
2019-04-13T19:41:13.385Z,96938.55
2019-04-13T19:43:39.263Z,96934.63
2019-04-13T19:46:05.895Z,96934.63
2019-04-13T19:48:31.882Z,96934.16
2019-04-13T19:50:57.772Z,96933.88
2019-04-13T19:53:43.508Z,96932.37
2019-04-13T19:58:46.655Z,96937.44
2019-04-13T20:01:54.217Z,96939.55
2019-04-13T20:04:20.123Z,96931.48
2019-04-13T20:06:45.962Z,96928.36
2019-04-13T20:09:12.046Z,96925.48
2019-04-13T20:11:38.040Z,96923.13
2019-04-13T20:14:08.916Z,96923.65
2019-04-13T20:16:32.014Z,96924.67
2019-04-13T20:18:59.491Z,96925.97
2019-04-13T20:21:25.668Z,96920.76
2019-04-13T20:23:51.695Z,96915.01
2019-04-13T20:26:18.716Z,96915.02
2019-04-13T20:28:46.126Z,96911.86
2019-04-13T20:31:13.729Z,96914.47
2019-04-13T20:33:41.798Z,96917.08
2019-04-13T20:36:14.663Z,96918.39
2019-04-13T20:38:36.927Z,96914.97
2019-04-13T20:41:23.573Z,96918.88
2019-04-13T20:43:57.443Z,96917.86
2019-04-13T20:46:17.440Z,96914.94
2019-04-13T20:49:25.837Z,96909.45
2019-04-13T20:51:52.722Z,96906.85
2019-04-13T20:54:18.604Z,96910.80
2019-04-13T20:56:44.710Z,96908.19
2019-04-13T20:59:12.810Z,96913.43
2019-04-13T21:01:40.800Z,96911.80
2019-04-13T21:04:08.639Z,96912.06
2019-04-13T21:06:36.727Z,96910.50
2019-04-13T21:09:45.133Z,96910.77
2019-04-13T21:12:12.015Z,96917.54
2019-04-13T21:14:42.978Z,96919.38
2019-04-13T21:17:07.132Z,96918.06
2019-04-13T21:19:35.134Z,96918.62
2019-04-13T21:22:00.991Z,96924.36
2019-04-13T21:24:26.920Z,96920.70
2019-04-13T21:26:52.760Z,96916.53
2019-04-13T21:29:19.832Z,96923.60
2019-04-13T21:31:47.707Z,96922.82
2019-04-13T21:34:24.646Z,96926.47
2019-04-13T21:36:50.490Z,96926.21
2019-04-13T21:39:16.347Z,96924.14
2019-04-13T21:42:05.169Z,96917.64
2019-04-13T21:44:36.444Z,96916.58
2019-04-13T21:46:58.835Z,96924.16
2019-04-13T21:49:25.647Z,96927.56
2019-04-13T21:52:12.561Z,96927.55
2019-04-13T21:57:26.526Z,96930.17
2019-04-13T21:59:52.385Z,96932.78
2019-04-13T22:04:52.300Z,96921.02
2019-04-13T22:07:20.170Z,96926.49
2019-04-13T22:09:45.998Z,96919.99
2019-04-13T22:12:13.181Z,96923.90
2019-04-13T22:14:49.276Z,96919.73
2019-04-13T22:17:07.571Z,96924.68
2019-04-13T22:19:33.560Z,96922.84
2019-04-13T22:21:59.545Z,96933.54
2019-04-13T22:24:26.661Z,96937.22
2019-04-13T22:26:54.267Z,96938.75
2019-04-13T22:29:41.990Z,96892.54
2019-04-13T22:32:27.779Z,96942.16
2019-04-13T22:35:34.421Z,96939.02
2019-04-13T22:38:00.662Z,96936.67
2019-04-13T22:40:27.794Z,96940.30
2019-04-13T22:42:55.070Z,96936.09
2019-04-13T22:45:23.246Z,96933.23
2019-04-13T22:50:57.156Z,96935.83
2019-04-13T22:53:43.964Z,96936.36
2019-04-13T22:56:30.819Z,96932.70
2019-04-13T22:58:58.013Z,96928.50
2019-04-13T23:01:46.052Z,96926.97
2019-04-13T23:06:59.667Z,96924.09
2019-04-13T23:09:25.700Z,96928.50
2019-04-13T23:11:51.999Z,96925.14
2019-04-13T23:14:20.005Z,96922.53
2019-04-13T23:16:47.701Z,96920.19
2019-04-13T23:19:15.454Z,96925.14
2019-04-13T23:21:42.650Z,96918.36
2019-04-13T23:24:08.485Z,96917.05
2019-04-13T23:26:34.331Z,96911.86
2019-04-13T23:29:00.182Z,96916.53
2019-04-13T23:32:07.672Z,96916.80
2019-04-13T23:34:33.527Z,96912.36
2019-04-13T23:36:59.525Z,96915.20
2019-04-13T23:39:25.687Z,96911.31
2019-04-13T23:41:53.985Z,96908.16
2019-04-13T23:44:20.861Z,96909.98
2019-04-13T23:46:46.703Z,96903.98
2019-04-13T23:49:12.543Z,96905.31
2019-04-13T23:51:38.377Z,96895.63
2019-04-13T23:54:04.270Z,96901.34
2019-04-13T23:59:37.314Z,96897.16
